createdAt,value
2019-03-22T03:36:29.192Z,103020.70
2019-03-22T03:38:57.159Z,103023.86
2019-03-22T03:41:25.409Z,103021.16
2019-03-22T03:43:53.388Z,103005.42
2019-03-22T03:46:21.380Z,103017.58
2019-03-22T03:48:51.004Z,103006.81
2019-03-22T03:51:19.039Z,103009.52
2019-03-22T03:53:47.145Z,103013.55
2019-03-22T03:56:15.302Z,103014.00
2019-03-22T03:58:52.280Z,103021.64
2019-03-22T04:01:13.061Z,103016.25
2019-03-22T04:03:41.051Z,103018.94
2019-03-22T04:06:09.025Z,103010.02
2019-03-22T04:08:37.099Z,102939.02
2019-03-22T04:11:05.469Z,103013.12
2019-03-22T04:13:33.539Z,103013.52
2019-03-22T04:16:01.613Z,103014.90
2019-03-22T04:18:29.679Z,103014.00
2019-03-22T04:20:58.024Z,103013.59
2019-03-22T04:23:26.011Z,103009.91
2019-03-22T04:25:54.281Z,103018.92
2019-03-22T04:28:22.377Z,103029.68
2019-03-22T04:30:52.785Z,103037.28
2019-03-22T04:33:20.789Z,103049.39
2019-03-22T04:35:48.776Z,103048.45
2019-03-22T04:38:16.849Z,103047.11
2019-03-22T04:40:44.819Z,103043.11
2019-03-22T04:43:12.819Z,103048.92
2019-03-22T04:45:40.810Z,103047.52
2019-03-22T04:48:10.964Z,103052.05
2019-03-22T04:50:39.635Z,103044.38
2019-03-22T04:53:07.630Z,103048.84
2019-03-22T04:55:35.606Z,103057.81
2019-03-22T04:58:04.023Z,103055.56
2019-03-22T05:00:32.020Z,103062.32
2019-03-22T05:03:00.075Z,102963.41
2019-03-22T05:05:28.045Z,103073.07
2019-03-22T05:07:57.376Z,103070.81
2019-03-22T05:10:25.371Z,103068.12
2019-03-22T05:12:53.383Z,103068.55
2019-03-22T05:15:21.359Z,103064.08
2019-03-22T05:17:49.333Z,103061.81
2019-03-22T05:20:17.365Z,103069.44
2019-03-22T05:22:45.408Z,103073.06
2019-03-22T05:25:13.382Z,103083.36
2019-03-22T05:27:41.358Z,103082.05
2019-03-22T05:30:11.080Z,103083.78
2019-03-22T05:32:39.091Z,103087.37
2019-03-22T05:35:07.475Z,103087.87
2019-03-22T05:37:35.572Z,103088.75
2019-03-22T05:40:03.862Z,103087.39
2019-03-22T05:42:31.835Z,103093.22
2019-03-22T05:44:59.830Z,103100.00
2019-03-22T05:47:27.833Z,103106.30
2019-03-22T05:49:57.116Z,103104.07
2019-03-22T05:52:25.207Z,103104.56
2019-03-22T05:54:53.206Z,103109.92
2019-03-22T05:57:21.196Z,103113.08
2019-03-22T05:59:49.210Z,103113.53
2019-03-22T06:02:17.217Z,103126.47
2019-03-22T06:04:45.229Z,103134.49
2019-03-22T06:07:13.235Z,103137.20
2019-03-22T06:09:41.241Z,103128.22
2019-03-22T06:12:09.267Z,103123.88
2019-03-22T06:14:37.240Z,103033.48
2019-03-22T06:17:05.362Z,103137.58
2019-03-22T06:19:33.522Z,103135.70
2019-03-22T06:22:01.611Z,103127.14
2019-03-22T06:24:29.635Z,103076.78
2019-03-22T06:26:57.662Z,103118.06
2019-03-22T06:29:25.689Z,103123.11
2019-03-22T06:31:53.733Z,103118.16
2019-03-22T06:34:21.741Z,103119.53
2019-03-22T06:36:52.012Z,103112.31
2019-03-22T06:39:20.092Z,103107.39
2019-03-22T06:41:48.180Z,103106.93
2019-03-22T06:44:16.222Z,103101.91
2019-03-22T06:46:44.205Z,103110.94
2019-03-22T06:49:12.183Z,103106.44
2019-03-22T06:51:40.234Z,103105.06
2019-03-22T06:54:08.304Z,103059.60
2019-03-22T06:56:36.338Z,103101.50
2019-03-22T06:59:04.471Z,103091.70
2019-03-22T07:01:32.854Z,103096.12
2019-03-22T07:04:00.843Z,103093.42
2019-03-22T07:06:28.836Z,103089.44
2019-03-22T07:08:56.906Z,103100.69
2019-03-22T07:11:24.999Z,103100.69
2019-03-22T07:13:52.995Z,103103.36
2019-03-22T07:16:20.971Z,103109.17
2019-03-22T07:18:50.154Z,103074.48
2019-03-22T07:21:21.748Z,103104.64
2019-03-22T07:23:49.326Z,103103.30
2019-03-22T07:26:17.299Z,103106.47
2019-03-22T07:28:45.319Z,103052.08
2019-03-22T07:31:13.322Z,103102.88
2019-03-22T07:33:41.330Z,103104.69
2019-03-22T07:36:09.318Z,103107.77
2019-03-22T07:38:37.302Z,103103.78
2019-03-22T07:41:05.533Z,103086.64
2019-03-22T07:43:33.517Z,103097.97
2019-03-22T07:46:01.506Z,103095.27
2019-03-22T07:48:29.490Z,103101.58
2019-03-22T07:50:57.487Z,103101.98
2019-03-22T07:53:25.467Z,103105.18
2019-03-22T07:55:53.815Z,103097.13
2019-03-22T07:58:23.470Z,103092.19
2019-03-22T08:00:51.474Z,103084.10
2019-03-22T08:03:19.496Z,103087.66
2019-03-22T08:05:51.533Z,103090.33
2019-03-22T08:08:17.259Z,103097.09
2019-03-22T08:10:45.323Z,103090.38
2019-03-22T08:13:13.302Z,103086.77
2019-03-22T08:15:41.395Z,103093.09
2019-03-22T08:18:09.413Z,103093.52
2019-03-22T08:20:38.746Z,103088.11
2019-03-22T08:23:16.518Z,103093.52
2019-03-22T08:25:44.483Z,103091.75
2019-03-22T08:28:12.482Z,103087.24
2019-03-22T08:30:44.004Z,103086.79
2019-03-22T08:33:12.011Z,103092.65
2019-03-22T08:35:40.174Z,103084.09
2019-03-22T08:38:08.154Z,103084.58
2019-03-22T08:40:36.144Z,103084.55
2019-03-22T08:43:04.116Z,103078.73
2019-03-22T08:45:32.170Z,103010.03
2019-03-22T08:48:00.166Z,103079.16
2019-03-22T08:50:28.272Z,103082.31
2019-03-22T08:52:56.324Z,103077.80
2019-03-22T08:55:24.307Z,103023.03
2019-03-22T08:57:52.649Z,103078.25
2019-03-22T09:00:20.727Z,103080.95
2019-03-22T09:02:49.844Z,103079.61
2019-03-22T09:05:17.934Z,103081.88
2019-03-22T09:07:45.943Z,103071.55
2019-03-22T09:10:16.178Z,103067.95
2019-03-22T09:12:44.345Z,103067.05
2019-03-22T09:15:12.403Z,103067.92
2019-03-22T09:17:40.470Z,103069.23
2019-03-22T09:20:08.571Z,103025.66
2019-03-22T09:22:36.534Z,103054.44
2019-03-22T09:25:04.816Z,103056.69
2019-03-22T09:27:32.948Z,103057.16
2019-03-22T09:30:01.015Z,103054.45
2019-03-22T09:32:29.082Z,103060.73
2019-03-22T09:34:59.705Z,103062.09
2019-03-22T09:37:26.787Z,103048.64
2019-03-22T09:39:54.753Z,103051.78
2019-03-22T09:42:22.761Z,103047.70
2019-03-22T09:44:50.817Z,102972.22
2019-03-22T09:47:18.860Z,103050.41
2019-03-22T09:49:52.076Z,103041.43
2019-03-22T09:52:20.243Z,103014.06
2019-03-22T09:54:48.302Z,103041.91
2019-03-22T09:57:16.359Z,103041.02
2019-03-22T09:59:44.498Z,103045.48
2019-03-22T10:02:12.478Z,103042.80
2019-03-22T10:04:40.458Z,103040.11
2019-03-22T10:07:08.472Z,103026.20
2019-03-22T10:09:36.512Z,103019.02
2019-03-22T10:12:04.549Z,103017.22
2019-03-22T10:14:32.592Z,103017.64
2019-03-22T10:17:00.655Z,103016.30
2019-03-22T10:19:28.753Z,103010.91
2019-03-22T10:21:56.845Z,102998.80
2019-03-22T10:24:24.970Z,103000.17
2019-03-22T10:26:53.224Z,102992.98
2019-03-22T10:29:23.083Z,103002.84
2019-03-22T10:31:51.095Z,103001.52
2019-03-22T10:34:19.095Z,102998.35
2019-03-22T10:36:47.216Z,102992.53
2019-03-22T10:39:15.309Z,102981.77
2019-03-22T10:41:43.379Z,102994.77
2019-03-22T10:44:11.451Z,102988.48
2019-03-22T10:46:39.534Z,102986.25
2019-03-22T10:49:07.647Z,102983.11
2019-03-22T10:51:35.680Z,102984.01
2019-03-22T10:54:03.726Z,102972.77
2019-03-22T10:56:31.740Z,102972.78
2019-03-22T10:58:59.742Z,102966.94
2019-03-22T11:01:27.782Z,102963.80
2019-03-22T11:03:55.865Z,102960.66
2019-03-22T11:06:27.030Z,102956.64
2019-03-22T11:08:57.315Z,102954.39
2019-03-22T11:11:25.290Z,102945.86
2019-03-22T11:13:53.387Z,102948.98
2019-03-22T11:16:21.362Z,102948.98
2019-03-22T11:18:49.351Z,102945.39
2019-03-22T11:21:17.355Z,102937.31
2019-03-22T11:23:45.328Z,102929.69
2019-03-22T11:26:13.336Z,102931.03
2019-03-22T11:28:41.358Z,102927.42
2019-03-22T11:31:09.416Z,102922.03
2019-03-22T11:33:37.428Z,102926.53
2019-03-22T11:36:05.516Z,102917.11
2019-03-22T11:38:33.550Z,102915.32
2019-03-22T11:41:01.619Z,102916.66
2019-03-22T11:43:29.627Z,102926.53
2019-03-22T11:45:57.744Z,102926.53
2019-03-22T11:48:29.262Z,102919.80
2019-03-22T11:50:57.260Z,102911.72
2019-03-22T11:53:25.270Z,102915.76
2019-03-22T11:55:53.242Z,102904.09
2019-03-22T11:58:21.227Z,102898.69
2019-03-22T12:00:49.244Z,102886.12
2019-03-22T12:03:17.293Z,102890.60
2019-03-22T12:05:45.664Z,102892.83
2019-03-22T12:08:13.861Z,102883.41
2019-03-22T12:10:42.295Z,102893.75
2019-03-22T12:13:10.690Z,102892.39
2019-03-22T12:15:38.957Z,102888.34
2019-03-22T12:18:07.010Z,102892.38
2019-03-22T12:20:35.127Z,102821.98
2019-03-22T12:23:03.413Z,102880.28
2019-03-22T12:25:31.580Z,102880.72
2019-03-22T12:28:00.494Z,102867.67
2019-03-22T12:30:28.625Z,102860.05
2019-03-22T12:32:56.756Z,102860.95
2019-03-22T12:35:24.810Z,102855.10
2019-03-22T12:37:52.947Z,102852.88
2019-03-22T12:40:21.369Z,102842.52
2019-03-22T12:42:49.823Z,102840.73
2019-03-22T12:45:21.529Z,102839.39
2019-03-22T12:47:49.875Z,102837.09
2019-03-22T12:50:17.981Z,102829.48
2019-03-22T12:52:46.062Z,102826.78
2019-03-22T12:55:14.244Z,102821.84
2019-03-22T12:57:42.337Z,102822.73
2019-03-22T13:00:12.220Z,102814.64
2019-03-22T13:02:42.484Z,102820.00
2019-03-22T13:05:10.220Z,102723.23
2019-03-22T13:07:38.320Z,102815.97
2019-03-22T13:10:07.453Z,102814.62
2019-03-22T13:12:35.536Z,102806.10
2019-03-22T13:15:03.704Z,102802.45
2019-03-22T13:17:31.850Z,102799.72
2019-03-22T13:19:59.932Z,102793.91
2019-03-22T13:22:28.034Z,102784.00
2019-03-22T13:24:56.649Z,102757.09
2019-03-22T13:27:26.369Z,102787.09
2019-03-22T13:29:54.471Z,102779.91
2019-03-22T13:32:22.554Z,102776.77
2019-03-22T13:34:51.030Z,102768.19
2019-03-22T13:37:19.582Z,102764.17
2019-03-22T13:39:47.698Z,102756.93
2019-03-22T13:42:25.113Z,102755.14
2019-03-22T13:44:53.339Z,102750.64
2019-03-22T13:47:27.823Z,102743.87
2019-03-22T13:49:55.858Z,102748.80
2019-03-22T13:52:24.474Z,102743.40
2019-03-22T13:54:52.607Z,102737.01
2019-03-22T13:57:21.141Z,102731.68
2019-03-22T13:59:49.224Z,102726.31
2019-03-22T14:02:23.069Z,102717.69
2019-03-22T14:04:51.182Z,102719.91
2019-03-22T14:07:19.266Z,102718.03
2019-03-22T14:09:47.473Z,102707.19
2019-03-22T14:12:15.657Z,102708.03
2019-03-22T14:14:44.916Z,102699.58
2019-03-22T14:17:13.264Z,102704.50
2019-03-22T14:19:41.869Z,102703.61
2019-03-22T14:25:20.247Z,102688.64
2019-03-22T14:27:48.800Z,102678.74
2019-03-22T14:30:16.928Z,102683.22
2019-03-22T14:32:45.125Z,102678.69
2019-03-22T14:35:13.290Z,102678.63
2019-03-22T14:37:41.387Z,102669.75
2019-03-22T14:40:15.596Z,102668.80
2019-03-22T14:42:40.948Z,102655.20
2019-03-22T14:45:12.401Z,102563.97
2019-03-22T14:47:40.671Z,102659.64
2019-03-22T14:50:08.905Z,102652.41
2019-03-22T14:52:37.017Z,102649.72
2019-03-22T14:55:05.110Z,102645.19
2019-03-22T14:57:33.172Z,102643.80
2019-03-22T15:00:01.322Z,102633.00
2019-03-22T15:02:29.528Z,102628.91
2019-03-22T15:04:57.645Z,102629.78
2019-03-22T15:07:25.778Z,102618.88
2019-03-22T15:09:53.900Z,102611.25
2019-03-22T15:12:22.105Z,102601.35
2019-03-22T15:15:04.626Z,102600.49
2019-03-22T15:17:50.274Z,102593.18
2019-03-22T15:20:40.650Z,102591.42
2019-03-22T15:23:45.842Z,102584.17
2019-03-22T15:26:31.307Z,102581.85
2019-03-22T15:29:24.216Z,102499.19
2019-03-22T15:32:11.606Z,102581.36
2019-03-22T15:34:58.877Z,102572.92
2019-03-22T15:37:45.526Z,102564.78
2019-03-22T15:40:13.625Z,102561.09
2019-03-22T15:42:41.693Z,102557.05
2019-03-22T15:45:10.303Z,102551.16
2019-03-22T15:47:38.481Z,102558.36
2019-03-22T15:50:07.545Z,102549.67
2019-03-22T15:52:35.609Z,102542.92
2019-03-22T15:55:03.891Z,102551.89
2019-03-22T15:57:32.059Z,102544.23
2019-03-22T16:00:00.332Z,102541.98
2019-03-22T16:02:28.855Z,102554.23
2019-03-22T16:05:00.289Z,102537.48
2019-03-22T16:07:28.446Z,102538.37
2019-03-22T16:09:56.794Z,102538.34
2019-03-22T16:12:25.255Z,102528.84
2019-03-22T16:14:53.451Z,102525.23
2019-03-22T16:17:21.478Z,102521.31
2019-03-22T16:19:49.568Z,102515.33
2019-03-22T16:22:17.819Z,102522.94
2019-03-22T16:24:45.922Z,102517.09
2019-03-22T16:27:14.109Z,102497.86
2019-03-22T16:29:42.181Z,102509.38
2019-03-22T16:32:10.250Z,102507.98
2019-03-22T16:34:40.725Z,102507.94
2019-03-22T16:37:08.987Z,102501.73
2019-03-22T16:39:37.110Z,102508.93
2019-03-22T16:42:05.184Z,102501.23
2019-03-22T16:44:33.478Z,102501.72
2019-03-22T16:47:01.541Z,102502.95
2019-03-22T16:49:29.967Z,102501.05
2019-03-22T16:51:59.244Z,102491.67
2019-03-22T16:54:27.328Z,102487.63
2019-03-22T16:56:55.388Z,102497.89
2019-03-22T16:59:23.456Z,102491.96
2019-03-22T17:01:51.624Z,102488.79
2019-03-22T17:04:19.683Z,102484.88
2019-03-22T17:06:47.771Z,102481.67
2019-03-22T17:09:21.427Z,102481.63
2019-03-22T17:15:00.164Z,102481.63
2019-03-22T17:17:30.728Z,102480.21
2019-03-22T17:20:00.377Z,102482.02
2019-03-22T17:22:29.010Z,102488.77
2019-03-22T17:24:58.359Z,102484.82
2019-03-22T17:27:26.427Z,102484.73
2019-03-22T17:29:54.458Z,102482.95
2019-03-22T17:32:29.751Z,102484.61
2019-03-22T17:34:57.886Z,102482.36
2019-03-22T17:37:26.086Z,102489.07
2019-03-22T17:39:54.119Z,102490.42
2019-03-22T17:42:22.499Z,102486.96
2019-03-22T17:44:50.490Z,102484.66
2019-03-22T17:47:21.652Z,102485.20
2019-03-22T17:49:50.755Z,102492.81
2019-03-22T17:52:24.856Z,102319.32
2019-03-22T17:54:52.896Z,102428.12
2019-03-22T17:57:21.044Z,102419.61
2019-03-22T17:59:59.959Z,102487.03
2019-03-22T18:02:28.068Z,102457.95
2019-03-22T18:04:56.202Z,102485.33
2019-03-22T18:07:25.250Z,102473.22
2019-03-22T18:09:53.294Z,102489.34
2019-03-22T18:12:21.278Z,102446.19
2019-03-22T18:14:50.359Z,102494.97
2019-03-22T18:17:18.335Z,102483.22
2019-03-22T18:19:46.347Z,102493.43
2019-03-22T18:22:14.342Z,102492.62
2019-03-22T18:24:42.327Z,102490.38
2019-03-22T18:27:10.566Z,102493.38
2019-03-22T18:29:38.569Z,102492.41
2019-03-22T18:32:06.650Z,102438.02
2019-03-22T18:34:35.123Z,102496.47
2019-03-22T18:37:09.708Z,102470.11
2019-03-22T18:39:37.685Z,102489.12
2019-03-22T18:42:05.697Z,102489.38
2019-03-22T18:44:33.845Z,102490.12
2019-03-22T18:47:01.994Z,102489.22
2019-03-22T18:49:30.067Z,102465.95
2019-03-22T18:51:58.270Z,102487.02
2019-03-22T18:54:26.293Z,102483.57
2019-03-22T18:56:54.347Z,102486.41
2019-03-22T18:59:22.440Z,102483.98
2019-03-22T19:01:50.436Z,102482.68
2019-03-22T19:04:18.534Z,102478.56
2019-03-22T19:06:46.583Z,102469.66
2019-03-22T19:09:14.577Z,102474.56
2019-03-22T19:11:42.562Z,102472.76
2019-03-22T19:14:10.538Z,102478.21
2019-03-22T19:16:38.547Z,102477.51
2019-03-22T19:19:06.686Z,102468.81
2019-03-22T19:21:34.703Z,102479.71
2019-03-22T19:24:02.713Z,102474.27
2019-03-22T19:26:30.713Z,102480.34
2019-03-22T19:28:58.786Z,102477.78
2019-03-22T19:31:26.783Z,102479.09
2019-03-22T19:33:54.882Z,102480.44
2019-03-22T19:36:22.899Z,102473.55
2019-03-22T19:38:50.878Z,102473.59
2019-03-22T19:41:18.907Z,102477.69
2019-03-22T19:43:46.895Z,102479.91
2019-03-22T19:46:14.881Z,102471.74
2019-03-22T19:48:42.866Z,102476.30
2019-03-22T19:51:10.867Z,102308.40
2019-03-22T19:53:38.866Z,102470.85
2019-03-22T19:56:06.894Z,102471.88
2019-03-22T19:58:34.921Z,102467.78
2019-03-22T20:01:02.919Z,102440.86
2019-03-22T20:03:30.919Z,102462.11
2019-03-22T20:05:58.939Z,102465.31
2019-03-22T20:08:26.923Z,102465.72
2019-03-22T20:10:54.936Z,102470.13
2019-03-22T20:13:22.945Z,102463.06
2019-03-22T20:15:50.971Z,102463.38
2019-03-22T20:18:18.994Z,102465.17
2019-03-22T20:20:47.011Z,102464.05
2019-03-22T20:23:15.299Z,102466.12
2019-03-22T20:25:43.257Z,102460.27
2019-03-22T20:28:11.271Z,102458.56
2019-03-22T20:30:39.250Z,102457.26
2019-03-22T20:33:07.399Z,102453.74
2019-03-22T20:35:35.434Z,102455.99
2019-03-22T20:38:03.424Z,102451.00
2019-03-22T20:40:31.417Z,102453.37
2019-03-22T20:43:02.125Z,102440.46
2019-03-22T20:45:33.004Z,102449.42
2019-03-22T20:48:01.046Z,102447.30
2019-03-22T20:50:35.753Z,102445.28
2019-03-22T20:52:58.762Z,102441.55
2019-03-22T20:55:26.742Z,102358.95
2019-03-22T20:57:54.725Z,102449.52
2019-03-22T21:00:22.731Z,102441.59
2019-03-22T21:02:50.741Z,102446.05
2019-03-22T21:05:26.973Z,102402.22
2019-03-22T21:07:48.629Z,102435.60
2019-03-22T21:10:16.671Z,102439.75
2019-03-22T21:12:44.688Z,102437.13
2019-03-22T21:15:23.564Z,102289.89
2019-03-22T21:17:42.402Z,102434.43
2019-03-22T21:20:10.415Z,102426.69
2019-03-22T21:22:39.479Z,102425.34
2019-03-22T21:25:07.825Z,102420.44
2019-03-22T21:27:35.817Z,102421.03
2019-03-22T21:30:03.924Z,102414.59
2019-03-22T21:32:31.982Z,102414.73
2019-03-22T21:35:00.343Z,102418.95
2019-03-22T21:37:28.380Z,102415.76
2019-03-22T21:39:56.371Z,102412.88
2019-03-22T21:42:24.654Z,102404.59
2019-03-22T21:44:52.642Z,102399.16
2019-03-22T21:47:20.667Z,102314.05
2019-03-22T21:49:48.680Z,102396.95
2019-03-22T21:52:16.670Z,102396.55
2019-03-22T21:54:44.659Z,102389.04
2019-03-22T21:57:12.707Z,102388.98
2019-03-22T21:59:40.710Z,102385.39
2019-03-22T22:02:08.703Z,102385.31
2019-03-22T22:04:43.958Z,102377.34
2019-03-22T22:07:11.984Z,102367.89
2019-03-22T22:09:39.963Z,102371.63
2019-03-22T22:12:08.026Z,102363.44
2019-03-22T22:14:40.878Z,102358.00
2019-03-22T22:17:05.726Z,102358.53
2019-03-22T22:19:33.883Z,102307.27
2019-03-22T22:22:01.946Z,102283.44
2019-03-22T22:24:29.991Z,102347.02
2019-03-22T22:26:57.993Z,102350.41
2019-03-22T22:29:26.223Z,102236.84
2019-03-22T22:31:55.187Z,102339.87
2019-03-22T22:34:23.238Z,102332.02
2019-03-22T22:36:51.538Z,102327.28
2019-03-22T22:39:19.667Z,102283.73
2019-03-22T22:41:47.664Z,102329.81
2019-03-22T22:44:20.403Z,102318.29
2019-03-22T22:46:48.449Z,102312.89
2019-03-22T22:49:16.950Z,102319.67
2019-03-22T22:51:44.967Z,102314.86
2019-03-22T22:54:13.047Z,102310.33
2019-03-22T22:56:41.146Z,102312.56
2019-03-22T22:59:09.167Z,102304.11
2019-03-22T23:01:37.324Z,102307.27
2019-03-22T23:04:05.435Z,102299.79
2019-03-22T23:06:33.559Z,102293.50
2019-03-22T23:09:02.569Z,102296.55
2019-03-22T23:11:30.761Z,102301.05
2019-03-22T23:13:58.826Z,102295.73
2019-03-22T23:16:26.820Z,102291.13
2019-03-22T23:18:56.005Z,102293.00
2019-03-22T23:21:24.018Z,102281.69
2019-03-22T23:23:52.119Z,102280.50
2019-03-22T23:26:20.107Z,102289.08
2019-03-22T23:28:48.090Z,102286.43
2019-03-22T23:31:16.107Z,102285.31
2019-03-22T23:33:44.091Z,102282.50
2019-03-22T23:36:19.857Z,102280.18
2019-03-22T23:38:41.868Z,102189.05
2019-03-22T23:41:10.135Z,102282.33
2019-03-22T23:43:38.411Z,102293.03
2019-03-22T23:46:06.394Z,102270.53
2019-03-22T23:48:34.377Z,102270.45
2019-03-22T23:51:02.376Z,102219.87
2019-03-22T23:53:30.395Z,102273.56
2019-03-22T23:55:58.374Z,102265.45
2019-03-22T23:58:26.374Z,102167.58
